Terminal Aerodrome Forecast
Issued by NWS Wichita, KS

Home | Current Version | Previous Version | Text Only | Print | Product List | Glossary On
Versions: 1 2 3 4 5 6 7 8 9 10 11 12 13 14 15
825
FTUS43 KICT 111335 AAB
TAFICT
TAF AMD
KICT 111335Z 1114/1212 02012KT P6SM SKC
     FM111500 03009KT P6SM SCT009
     FM111900 07005KT P6SM SCT250
     FM112100 14004KT P6SM SCT250
     FM120700 20006KT P6SM SCT250=

USA.gov is the U.S. government's official web portal to all federal, state and local government web resources and services.